createdAt,value
2022-11-04T00:05:44.093Z,59.85
2022-11-04T00:16:29.983Z,59.86
2022-11-04T00:27:14.792Z,60.17
2022-11-04T00:37:44.127Z,60.29
2022-11-04T00:48:11.848Z,60.18
2022-11-04T00:58:39.603Z,60.46
2022-11-04T01:09:10.336Z,61.05
2022-11-04T01:19:38.092Z,61.37
2022-11-04T01:30:05.786Z,61.41
2022-11-04T01:40:36.923Z,61.22
2022-11-04T01:51:04.940Z,61.12
2022-11-04T02:01:32.801Z,61.17
2022-11-04T02:12:18.519Z,61.11
2022-11-04T02:23:27.828Z,60.91
2022-11-04T02:34:02.438Z,60.99
2022-11-04T02:44:36.757Z,61.14
2022-11-04T02:55:08.689Z,61.18
2022-11-04T03:05:40.548Z,61.26
2022-11-04T03:16:12.702Z,61.30
2022-11-04T03:26:46.022Z,61.02
2022-11-04T03:37:13.519Z,60.67
2022-11-04T03:47:41.146Z,60.54
2022-11-04T03:58:16.424Z,60.59
2022-11-04T04:08:49.872Z,60.49
2022-11-04T04:19:21.468Z,59.94
2022-11-04T04:29:50.769Z,59.79
2022-11-04T04:40:39.196Z,59.49
2022-11-04T04:51:05.144Z,59.51
2022-11-04T05:01:32.930Z,59.71
2022-11-04T05:12:00.603Z,59.56
2022-11-04T05:22:27.973Z,60.07
2022-11-04T05:32:59.811Z,60.52
2022-11-04T05:43:30.901Z,61.16
2022-11-04T05:53:58.892Z,61.28
2022-11-04T06:04:27.200Z,61.88
2022-11-04T06:14:53.553Z,62.39
2022-11-04T06:25:21.457Z,62.80
2022-11-04T06:35:49.539Z,62.87
2022-11-04T06:46:32.903Z,63.03
2022-11-04T06:57:00.233Z,64.35
2022-11-04T07:07:30.290Z,64.37
2022-11-04T07:17:59.747Z,62.86
2022-11-04T07:28:27.159Z,62.19
2022-11-04T07:38:55.320Z,61.87
2022-11-04T07:49:22.696Z,61.63
2022-11-04T07:59:50.123Z,61.67
2022-11-04T08:10:17.552Z,61.68
2022-11-04T08:20:50.776Z,61.70
2022-11-04T08:31:19.836Z,61.49
2022-11-04T08:41:48.199Z,61.48
2022-11-04T08:52:15.560Z,61.33
2022-11-04T09:02:42.935Z,61.30
2022-11-04T09:13:11.854Z,61.08
2022-11-04T09:23:39.708Z,61.38
2022-11-04T09:34:07.319Z,61.28
2022-11-04T09:45:15.031Z,61.43
2022-11-04T09:55:39.419Z,61.46
2022-11-04T10:06:26.339Z,61.36
2022-11-04T10:17:07.943Z,61.17
2022-11-04T10:27:39.743Z,61.42
2022-11-04T10:38:19.739Z,61.96
2022-11-04T10:48:53.174Z,62.13
2022-11-04T10:59:25.901Z,62.04
2022-11-04T11:09:57.155Z,61.85
2022-11-04T11:20:26.876Z,62.14
2022-11-04T11:31:00.984Z,62.23
2022-11-04T11:41:38.488Z,62.08
2022-11-04T11:52:31.779Z,61.41
2022-11-04T12:03:06.734Z,61.12
2022-11-04T12:13:40.761Z,60.93
2022-11-04T12:24:24.457Z,60.67
2022-11-04T12:35:06.484Z,60.37
2022-11-04T12:45:45.818Z,60.55
2022-11-04T12:56:15.519Z,60.49
2022-11-04T13:06:47.247Z,60.48
2022-11-04T13:17:19.164Z,60.89
2022-11-04T13:27:48.883Z,61.55
2022-11-04T13:38:20.265Z,61.34
2022-11-04T13:49:00.081Z,61.42
2022-11-04T13:59:30.471Z,61.93
2022-11-04T14:09:58.284Z,62.18
2022-11-04T14:20:29.840Z,61.81
2022-11-04T14:30:58.496Z,61.45
2022-11-04T14:41:34.665Z,61.64
2022-11-04T14:52:02.736Z,61.73
2022-11-04T15:02:33.954Z,61.76
2022-11-04T15:13:03.244Z,61.94
2022-11-04T15:23:32.664Z,61.99
2022-11-04T15:34:02.530Z,62.58
2022-11-04T15:44:33.632Z,63.17
2022-11-04T15:55:03.431Z,63.39
2022-11-04T16:05:33.335Z,63.95
2022-11-04T16:16:21.553Z,64.41
2022-11-04T16:26:47.795Z,64.39
2022-11-04T16:37:15.588Z,64.27
2022-11-04T16:47:44.200Z,64.58
2022-11-04T16:58:18.379Z,65.49
2022-11-04T17:08:46.167Z,65.70
2022-11-04T17:19:17.567Z,65.70
2022-11-04T17:29:45.098Z,66.03
2022-11-04T17:40:15.991Z,66.01
2022-11-04T17:50:43.456Z,66.36
2022-11-04T18:01:13.088Z,66.68
2022-11-04T18:11:58.739Z,66.89
2022-11-04T18:22:26.213Z,66.89
2022-11-04T18:32:53.991Z,67.05
2022-11-04T18:43:22.780Z,67.10
2022-11-04T18:53:50.658Z,67.42
2022-11-04T19:04:16.532Z,67.59
2022-11-04T19:14:44.190Z,67.68
2022-11-04T19:25:12.435Z,67.75
2022-11-04T19:35:41.534Z,68.13
2022-11-04T19:46:09.113Z,68.51
2022-11-04T19:56:36.828Z,68.36
2022-11-04T20:07:04.189Z,68.76
2022-11-04T20:17:33.575Z,68.94
2022-11-04T20:28:02.288Z,69.51
2022-11-04T20:38:30.093Z,69.32
2022-11-04T20:48:58.464Z,69.96
2022-11-04T20:59:25.841Z,70.47
2022-11-04T21:09:53.292Z,70.57
2022-11-04T21:20:20.735Z,70.39
2022-11-04T21:30:50.125Z,70.10
2022-11-04T21:41:19.716Z,69.92
2022-11-04T21:51:47.084Z,69.96
2022-11-04T22:02:14.687Z,70.22
2022-11-04T22:12:44.708Z,70.37
2022-11-04T22:23:14.669Z,70.09
2022-11-04T22:33:42.100Z,70.57
2022-11-04T22:44:09.923Z,71.62
2022-11-04T22:54:37.296Z,72.52
2022-11-04T23:05:04.916Z,72.50
2022-11-04T23:15:50.619Z,72.42
2022-11-04T23:26:18.138Z,72.30
2022-11-04T23:37:02.703Z,71.89
2022-11-04T23:47:47.614Z,71.14
2022-11-04T23:58:32.451Z,70.70
